createdAt,value
2023-01-29T00:01:27.645Z,-2.63
2023-01-29T00:03:30.405Z,-2.66
2023-01-29T00:05:35.361Z,-2.64
2023-01-29T00:07:37.979Z,-2.56
2023-01-29T00:09:40.765Z,-2.57
2023-01-29T00:11:43.627Z,-2.61
2023-01-29T00:13:46.967Z,-2.61
2023-01-29T00:16:00.203Z,-2.58
2023-01-29T00:18:02.768Z,-2.56
2023-01-29T00:20:05.813Z,-2.55
2023-01-29T00:22:08.459Z,-2.56
2023-01-29T00:24:11.537Z,-2.55
2023-01-29T00:26:15.392Z,-2.53
2023-01-29T00:28:18.084Z,-2.51
2023-01-29T00:30:21.479Z,-2.48
2023-01-29T00:32:24.101Z,-2.47
2023-01-29T00:34:26.644Z,-2.50
2023-01-29T00:36:29.286Z,-2.49
2023-01-29T00:38:34.724Z,-2.54
2023-01-29T00:40:57.490Z,-2.55
2023-01-29T00:43:18.415Z,-2.61
2023-01-29T00:45:21.268Z,-2.59
2023-01-29T00:47:36.601Z,-2.56
2023-01-29T00:49:39.136Z,-2.52
2023-01-29T00:51:41.808Z,-2.52
2023-01-29T00:53:44.410Z,-2.53
2023-01-29T00:55:47.060Z,-2.52
2023-01-29T00:57:49.797Z,-2.53
2023-01-29T00:59:52.568Z,-2.56
2023-01-29T01:02:13.542Z,-2.62
2023-01-29T01:04:16.154Z,-2.66
2023-01-29T01:06:18.822Z,-2.66
2023-01-29T01:08:40.151Z,-2.62
2023-01-29T01:10:42.821Z,-2.60
2023-01-29T01:12:45.511Z,-2.55
2023-01-29T01:14:48.945Z,-2.49
2023-01-29T01:16:51.638Z,-2.50
2023-01-29T01:18:54.191Z,-2.47
2023-01-29T01:20:59.852Z,-2.45
2023-01-29T01:23:03.349Z,-2.46
2023-01-29T01:25:06.165Z,-2.52
2023-01-29T01:27:09.109Z,-2.53
2023-01-29T01:29:11.688Z,-2.57
2023-01-29T01:31:15.723Z,-2.57
2023-01-29T01:33:18.687Z,-2.55
2023-01-29T01:35:21.378Z,-2.54
2023-01-29T01:37:23.971Z,-2.54
2023-01-29T01:39:26.649Z,-2.59
2023-01-29T01:41:30.578Z,-2.57
2023-01-29T01:43:57.597Z,-2.59
2023-01-29T01:46:00.293Z,-2.59
2023-01-29T01:48:25.123Z,-2.60
2023-01-29T01:50:33.842Z,-2.62
2023-01-29T01:52:42.059Z,-2.62
2023-01-29T01:54:45.052Z,-2.59
2023-01-29T01:56:55.718Z,-2.61
2023-01-29T01:58:59.699Z,-2.60
2023-01-29T02:01:05.030Z,-2.60
2023-01-29T02:03:28.609Z,-2.61
2023-01-29T02:05:51.895Z,-2.62
2023-01-29T02:08:13.232Z,-2.62
2023-01-29T02:10:18.872Z,-2.56
2023-01-29T02:12:22.279Z,-2.53
2023-01-29T02:14:25.548Z,-2.50
2023-01-29T02:16:48.200Z,-2.53
2023-01-29T02:18:51.274Z,-2.52
2023-01-29T02:21:25.218Z,-2.49
2023-01-29T02:24:19.091Z,-2.52
2023-01-29T02:26:21.601Z,-2.57
2023-01-29T02:28:45.718Z,-2.55
2023-01-29T02:31:00.489Z,-2.56
2023-01-29T02:33:26.210Z,-2.53
2023-01-29T02:35:37.629Z,-2.54
2023-01-29T02:37:49.081Z,-2.56
2023-01-29T02:40:35.871Z,-2.52
2023-01-29T02:42:47.469Z,-2.50
2023-01-29T02:45:05.482Z,-2.53
2023-01-29T02:47:28.212Z,-2.45
2023-01-29T02:49:44.393Z,-2.45
2023-01-29T02:51:50.489Z,-2.46
2023-01-29T02:54:05.561Z,-2.47
2023-01-29T02:56:11.673Z,-2.46
2023-01-29T02:58:21.127Z,-2.49
2023-01-29T03:00:30.856Z,-2.45
2023-01-29T03:02:44.198Z,-2.48
2023-01-29T03:04:51.784Z,-2.46
2023-01-29T03:07:01.001Z,-2.46
2023-01-29T03:09:15.003Z,-2.48
2023-01-29T03:11:18.336Z,-2.50
2023-01-29T03:13:36.973Z,-2.48
2023-01-29T03:15:47.636Z,-2.53
2023-01-29T03:17:57.584Z,-2.52
2023-01-29T03:20:01.670Z,-2.53
2023-01-29T03:22:08.718Z,-2.51
2023-01-29T03:24:33.758Z,-2.51
2023-01-29T03:26:55.586Z,-2.55
2023-01-29T03:29:19.209Z,-2.60
2023-01-29T03:31:40.575Z,-2.64
2023-01-29T03:34:00.201Z,-2.67
2023-01-29T03:36:09.311Z,-2.70
2023-01-29T03:38:12.196Z,-2.70
2023-01-29T03:40:16.231Z,-2.68
2023-01-29T03:42:24.898Z,-2.70
2023-01-29T03:44:42.033Z,-2.71
2023-01-29T03:47:05.117Z,-2.68
2023-01-29T03:49:19.239Z,-2.65
2023-01-29T03:51:24.738Z,-2.64
2023-01-29T03:53:33.111Z,-2.65
2023-01-29T03:55:55.651Z,-2.70
2023-01-29T03:58:06.000Z,-2.70
2023-01-29T04:00:42.820Z,-2.69
2023-01-29T04:03:07.894Z,-2.70
2023-01-29T04:05:19.975Z,-2.76
2023-01-29T04:07:24.790Z,-2.79
2023-01-29T04:09:36.640Z,-2.81
2023-01-29T04:11:45.828Z,-2.88
2023-01-29T04:13:49.378Z,-2.89
2023-01-29T04:15:58.691Z,-2.88
2023-01-29T04:18:02.025Z,-2.81
2023-01-29T04:20:05.035Z,-2.79
2023-01-29T04:22:19.274Z,-2.81
2023-01-29T04:24:21.956Z,-2.81
2023-01-29T04:26:39.600Z,-2.81
2023-01-29T04:29:32.334Z,-2.80
2023-01-29T04:31:48.032Z,-2.81
2023-01-29T04:34:09.950Z,-2.83
2023-01-29T04:36:15.235Z,-2.81
2023-01-29T04:38:26.560Z,-2.82
2023-01-29T04:40:48.096Z,-2.85
2023-01-29T04:43:05.427Z,-2.84
2023-01-29T04:45:20.762Z,-2.80
2023-01-29T04:47:48.038Z,-2.81
2023-01-29T04:50:17.781Z,-2.86
2023-01-29T04:52:32.504Z,-2.81
2023-01-29T04:54:41.148Z,-2.83
2023-01-29T04:57:11.461Z,-2.82
2023-01-29T04:59:21.019Z,-2.81
2023-01-29T05:01:29.009Z,-2.76
2023-01-29T05:03:34.306Z,-2.81
2023-01-29T05:05:37.351Z,-2.79
2023-01-29T05:07:42.953Z,-2.78
2023-01-29T05:09:48.209Z,-2.82
2023-01-29T05:11:51.101Z,-2.86
2023-01-29T05:13:54.280Z,-2.84
2023-01-29T05:16:02.396Z,-2.82
2023-01-29T05:18:09.312Z,-2.82
2023-01-29T05:20:13.068Z,-2.77
2023-01-29T05:22:18.809Z,-2.79
2023-01-29T05:24:25.622Z,-2.82
2023-01-29T05:26:47.150Z,-2.84
2023-01-29T05:28:50.013Z,-2.83
2023-01-29T05:30:55.774Z,-2.84
2023-01-29T05:32:58.800Z,-2.84
2023-01-29T05:35:03.112Z,-2.87
2023-01-29T05:37:06.494Z,-2.83
2023-01-29T05:39:09.062Z,-2.78
2023-01-29T05:41:11.709Z,-2.80
2023-01-29T05:43:16.881Z,-2.82
2023-01-29T05:45:19.633Z,-2.84
2023-01-29T05:47:22.341Z,-2.88
2023-01-29T05:49:24.925Z,-2.92
2023-01-29T05:51:27.549Z,-2.88
2023-01-29T05:53:30.920Z,-2.90
2023-01-29T05:55:33.472Z,-2.87
2023-01-29T05:57:36.283Z,-2.86
2023-01-29T05:59:38.904Z,-2.92
2023-01-29T06:01:42.173Z,-2.95
2023-01-29T06:03:45.830Z,-2.95
2023-01-29T06:05:49.037Z,-3.02
2023-01-29T06:07:52.199Z,-3.03
2023-01-29T06:09:55.054Z,-3.03
2023-01-29T06:11:57.746Z,-3.03
2023-01-29T06:14:00.343Z,-3.01
2023-01-29T06:16:10.338Z,-3.04
2023-01-29T06:18:12.994Z,-3.07
2023-01-29T06:20:15.908Z,-3.06
2023-01-29T06:22:18.700Z,-3.07
2023-01-29T06:24:21.304Z,-3.05
2023-01-29T06:26:24.041Z,-3.02
2023-01-29T06:28:26.700Z,-3.06
2023-01-29T06:30:29.339Z,-3.05
2023-01-29T06:32:32.141Z,-3.08
2023-01-29T06:34:35.243Z,-3.07
2023-01-29T06:36:38.053Z,-3.03
2023-01-29T06:38:40.839Z,-3.07
2023-01-29T06:40:43.450Z,-3.07
2023-01-29T06:42:48.337Z,-3.03
2023-01-29T06:44:54.546Z,-2.99
2023-01-29T06:46:57.090Z,-3.03
2023-01-29T06:49:00.948Z,-2.99
2023-01-29T06:51:05.532Z,-3.00
2023-01-29T06:53:08.174Z,-2.92
2023-01-29T06:55:11.088Z,-2.92
2023-01-29T06:57:13.705Z,-2.88
2023-01-29T06:59:16.306Z,-2.85
2023-01-29T07:01:34.793Z,-2.83
2023-01-29T07:03:38.850Z,-2.77
2023-01-29T07:05:41.480Z,-2.76
2023-01-29T07:07:44.462Z,-2.72
2023-01-29T07:09:47.027Z,-2.68
2023-01-29T07:11:49.775Z,-2.72
2023-01-29T07:13:52.548Z,-2.64
2023-01-29T07:15:58.303Z,-2.64
2023-01-29T07:18:02.805Z,-2.55
2023-01-29T07:20:06.644Z,-2.46
2023-01-29T07:22:09.273Z,-2.47
2023-01-29T07:24:11.865Z,-2.42
2023-01-29T07:26:14.676Z,-2.40
2023-01-29T07:28:23.599Z,-2.34
2023-01-29T07:30:26.298Z,-2.30
2023-01-29T07:32:29.353Z,-2.28
2023-01-29T07:34:31.915Z,-2.28
2023-01-29T07:36:34.418Z,-2.31
2023-01-29T07:38:37.092Z,-2.24
2023-01-29T07:40:39.631Z,-2.23
2023-01-29T07:42:44.177Z,-2.15
2023-01-29T07:44:46.945Z,-2.12
2023-01-29T07:46:49.693Z,-2.14
2023-01-29T07:48:52.336Z,-2.03
2023-01-29T07:50:56.663Z,-2.06
2023-01-29T07:52:59.367Z,-2.00
2023-01-29T07:55:02.028Z,-1.95
2023-01-29T07:57:06.074Z,-1.91
2023-01-29T07:59:08.637Z,-1.85
2023-01-29T08:01:11.308Z,-1.78
2023-01-29T08:03:17.793Z,-1.78
2023-01-29T08:05:20.510Z,-1.81
2023-01-29T08:07:23.165Z,-1.86
2023-01-29T08:09:25.789Z,-1.80
2023-01-29T08:11:28.346Z,-1.76
2023-01-29T08:13:31.571Z,-1.76
2023-01-29T08:15:37.931Z,-1.78
2023-01-29T08:17:56.129Z,-1.80
2023-01-29T08:20:02.672Z,-1.71
2023-01-29T08:22:07.010Z,-1.67
2023-01-29T08:24:09.709Z,-1.61
2023-01-29T08:26:12.325Z,-1.66
2023-01-29T08:28:14.959Z,-1.63
2023-01-29T08:30:18.627Z,-1.60
2023-01-29T08:32:21.500Z,-1.59
2023-01-29T08:34:24.278Z,-1.55
2023-01-29T08:36:26.858Z,-1.49
2023-01-29T08:38:29.495Z,-1.36
2023-01-29T08:40:34.236Z,-1.40
2023-01-29T08:42:36.899Z,-1.49
2023-01-29T08:44:39.513Z,-1.42
2023-01-29T08:46:42.081Z,-1.44
2023-01-29T08:48:44.717Z,-1.41
2023-01-29T08:50:47.297Z,-1.47
2023-01-29T08:52:50.015Z,-1.33
2023-01-29T08:54:52.623Z,-1.23
2023-01-29T08:56:56.161Z,-1.19
2023-01-29T08:58:59.252Z,-1.05
2023-01-29T09:01:12.909Z,-0.98
2023-01-29T09:03:15.538Z,-0.99
2023-01-29T09:05:18.655Z,-1.06
2023-01-29T09:07:21.959Z,-1.08
2023-01-29T09:09:24.551Z,-1.11
2023-01-29T09:11:27.166Z,-1.11
2023-01-29T09:13:30.073Z,-1.14
2023-01-29T09:15:32.657Z,-1.10
2023-01-29T09:17:35.298Z,-1.07
2023-01-29T09:19:37.860Z,-1.21
2023-01-29T09:21:40.416Z,-1.09
2023-01-29T09:23:43.091Z,-0.99
2023-01-29T09:25:45.635Z,-0.93
2023-01-29T09:27:48.184Z,-0.99
2023-01-29T09:29:50.996Z,-1.03
2023-01-29T09:31:53.720Z,-1.07
2023-01-29T09:33:56.492Z,-1.18
2023-01-29T09:35:59.138Z,-1.30
2023-01-29T09:38:02.056Z,-1.30
2023-01-29T09:40:05.022Z,-1.29
2023-01-29T09:42:36.068Z,-1.49
2023-01-29T09:44:53.525Z,-1.44
2023-01-29T09:46:57.234Z,-1.44
2023-01-29T09:49:20.403Z,-1.53
2023-01-29T09:51:31.670Z,-1.63
2023-01-29T09:53:43.779Z,-1.60
2023-01-29T09:55:49.631Z,-1.54
2023-01-29T09:57:58.584Z,-1.49
2023-01-29T10:00:01.301Z,-1.54
2023-01-29T10:02:19.424Z,-1.54
2023-01-29T10:05:01.707Z,-1.51
2023-01-29T10:07:25.315Z,-1.57
2023-01-29T10:09:30.609Z,-1.59
2023-01-29T10:11:46.226Z,-1.56
2023-01-29T10:14:12.979Z,-1.55
2023-01-29T10:16:33.692Z,-1.58
2023-01-29T10:18:57.718Z,-1.64
2023-01-29T10:21:27.476Z,-1.70
2023-01-29T10:23:36.846Z,-1.75
2023-01-29T10:25:43.183Z,-1.70
2023-01-29T10:27:52.100Z,-1.68
2023-01-29T10:29:56.255Z,-1.77
2023-01-29T10:32:05.224Z,-1.91
2023-01-29T10:34:33.332Z,-1.91
2023-01-29T10:36:49.481Z,-1.87
2023-01-29T10:38:52.502Z,-1.86
2023-01-29T10:41:10.321Z,-1.87
2023-01-29T10:43:29.330Z,-2.08
2023-01-29T10:46:00.547Z,-2.22
2023-01-29T10:48:05.001Z,-2.17
2023-01-29T10:50:42.827Z,-2.29
2023-01-29T10:53:04.024Z,-2.38
2023-01-29T10:55:24.812Z,-2.44
2023-01-29T10:57:35.443Z,-2.49
2023-01-29T11:00:02.634Z,-2.55
2023-01-29T11:02:19.734Z,-2.57
2023-01-29T11:04:22.907Z,-2.62
2023-01-29T11:06:29.790Z,-2.64
2023-01-29T11:08:59.198Z,-2.79
2023-01-29T11:11:17.547Z,-2.83
2023-01-29T11:13:20.393Z,-2.89
2023-01-29T11:15:33.501Z,-2.77
2023-01-29T11:17:36.058Z,-2.66
2023-01-29T11:19:43.972Z,-2.67
2023-01-29T11:21:59.715Z,-2.77
2023-01-29T11:24:15.478Z,-2.90
2023-01-29T11:26:22.591Z,-2.87
2023-01-29T11:28:46.371Z,-2.91
2023-01-29T11:30:53.923Z,-2.98
2023-01-29T11:33:07.056Z,-3.03
2023-01-29T11:35:33.583Z,-3.14
2023-01-29T11:37:39.384Z,-3.11
2023-01-29T11:39:47.426Z,-3.23
2023-01-29T11:42:04.807Z,-3.25
2023-01-29T11:44:24.475Z,-3.30
2023-01-29T11:46:27.233Z,-3.51
2023-01-29T11:48:48.033Z,-3.65
2023-01-29T11:51:05.534Z,-3.81
2023-01-29T11:53:35.382Z,-3.88
2023-01-29T11:55:50.221Z,-4.00
2023-01-29T11:58:12.736Z,-3.96
2023-01-29T12:00:25.245Z,-4.04
2023-01-29T12:02:42.229Z,-4.15
2023-01-29T12:04:45.583Z,-4.13
2023-01-29T12:06:53.194Z,-4.14
2023-01-29T12:09:00.356Z,-4.12
2023-01-29T12:11:26.366Z,-4.23
2023-01-29T12:13:30.779Z,-4.21
2023-01-29T12:15:33.355Z,-4.27
2023-01-29T12:17:39.277Z,-4.26
2023-01-29T12:19:53.927Z,-4.28
2023-01-29T12:22:04.191Z,-4.40
2023-01-29T12:24:28.193Z,-4.38
2023-01-29T12:27:09.486Z,-4.31
2023-01-29T12:29:36.675Z,-4.37
2023-01-29T12:32:30.470Z,-4.38
2023-01-29T12:35:18.146Z,-4.43
2023-01-29T12:37:35.985Z,-4.51
2023-01-29T12:39:38.583Z,-4.64
2023-01-29T12:41:56.189Z,-4.65
2023-01-29T12:44:43.818Z,-4.61
2023-01-29T12:46:55.066Z,-4.73
2023-01-29T12:49:02.349Z,-4.78
2023-01-29T12:51:19.252Z,-4.82
2023-01-29T12:53:34.577Z,-4.84
2023-01-29T12:55:54.110Z,-4.81
2023-01-29T12:58:00.364Z,-4.90
2023-01-29T13:00:26.057Z,-4.89
2023-01-29T13:02:46.149Z,-4.89
2023-01-29T13:05:00.208Z,-4.92
2023-01-29T13:07:12.753Z,-4.88
2023-01-29T13:09:23.665Z,-4.87
2023-01-29T13:11:41.304Z,-4.89
2023-01-29T13:13:54.821Z,-4.84
2023-01-29T13:16:00.242Z,-4.88
2023-01-29T13:18:18.092Z,-4.88
2023-01-29T13:20:20.620Z,-4.96
2023-01-29T13:22:31.788Z,-5.00
2023-01-29T13:24:40.360Z,-5.14
2023-01-29T13:26:47.841Z,-5.24
2023-01-29T13:28:52.551Z,-5.29
2023-01-29T13:31:29.454Z,-5.34
2023-01-29T13:33:32.223Z,-5.42
2023-01-29T13:35:42.242Z,-5.45
2023-01-29T13:37:51.319Z,-5.52
2023-01-29T13:39:56.079Z,-5.56
2023-01-29T13:42:01.225Z,-5.63
2023-01-29T13:44:08.414Z,-5.67
2023-01-29T13:46:15.148Z,-5.72
2023-01-29T13:48:29.227Z,-5.88
2023-01-29T13:50:43.634Z,-5.99
2023-01-29T13:52:58.399Z,-6.06
2023-01-29T13:55:31.245Z,-6.08
2023-01-29T13:57:39.841Z,-6.17
2023-01-29T13:59:55.556Z,-6.35
2023-01-29T14:02:05.559Z,-6.40
2023-01-29T14:04:22.828Z,-6.47
2023-01-29T14:06:46.856Z,-6.51
2023-01-29T14:08:49.594Z,-6.60
2023-01-29T14:11:15.506Z,-6.67
2023-01-29T14:13:21.674Z,-6.74
2023-01-29T14:15:27.916Z,-6.85
2023-01-29T14:17:30.885Z,-6.82
2023-01-29T14:19:34.695Z,-6.88
2023-01-29T14:21:37.967Z,-7.00
2023-01-29T14:23:46.934Z,-7.03
2023-01-29T14:25:49.833Z,-7.04
2023-01-29T14:27:53.257Z,-7.11
2023-01-29T14:30:10.396Z,-7.18
2023-01-29T14:32:25.188Z,-7.23
2023-01-29T14:34:33.114Z,-7.34
2023-01-29T14:36:43.738Z,-7.29
2023-01-29T14:38:50.333Z,-7.33
2023-01-29T14:41:08.094Z,-7.39
2023-01-29T14:43:20.316Z,-7.45
2023-01-29T14:45:41.990Z,-7.47
2023-01-29T14:47:44.627Z,-7.53
2023-01-29T14:49:58.417Z,-7.60
2023-01-29T14:52:01.836Z,-7.66
2023-01-29T14:54:23.284Z,-7.70
2023-01-29T14:56:44.980Z,-7.76
2023-01-29T14:58:56.220Z,-7.76
2023-01-29T15:01:01.215Z,-7.80
2023-01-29T15:03:12.297Z,-7.86
2023-01-29T15:05:21.718Z,-7.88
2023-01-29T15:07:30.491Z,-7.92
2023-01-29T15:09:55.637Z,-7.96
2023-01-29T15:12:39.308Z,-8.04
2023-01-29T15:14:51.232Z,-8.15
2023-01-29T15:17:08.193Z,-8.09
2023-01-29T15:19:25.175Z,-8.14
2023-01-29T15:21:27.812Z,-8.13
2023-01-29T15:23:32.793Z,-8.16
2023-01-29T15:25:38.005Z,-8.14
2023-01-29T15:27:45.701Z,-8.13
2023-01-29T15:29:57.299Z,-8.17
2023-01-29T15:32:01.506Z,-8.17
2023-01-29T15:34:07.640Z,-8.23
2023-01-29T15:36:28.298Z,-8.25
2023-01-29T15:38:31.700Z,-8.27
2023-01-29T15:40:34.739Z,-8.27
2023-01-29T15:42:48.870Z,-8.26
2023-01-29T15:44:56.233Z,-8.27
2023-01-29T15:47:01.631Z,-8.27
2023-01-29T15:49:10.405Z,-8.32
2023-01-29T15:51:31.967Z,-8.37
2023-01-29T15:53:42.855Z,-8.34
2023-01-29T15:55:46.603Z,-8.40
2023-01-29T15:57:50.435Z,-8.45
2023-01-29T15:59:56.603Z,-8.46
2023-01-29T16:01:59.337Z,-8.43
2023-01-29T16:04:03.178Z,-8.43
2023-01-29T16:06:07.401Z,-8.46
2023-01-29T16:08:15.087Z,-8.55
2023-01-29T16:10:28.369Z,-8.56
2023-01-29T16:12:33.640Z,-8.62
2023-01-29T16:14:36.836Z,-8.64
2023-01-29T16:16:39.464Z,-8.65
2023-01-29T16:18:59.490Z,-8.67
2023-01-29T16:21:40.467Z,-8.73
2023-01-29T16:23:51.712Z,-8.77
2023-01-29T16:25:57.453Z,-8.79
2023-01-29T16:28:04.643Z,-8.84
2023-01-29T16:30:07.684Z,-8.85
2023-01-29T16:32:14.060Z,-8.90
2023-01-29T16:34:30.273Z,-8.91
2023-01-29T16:36:33.059Z,-9.01
2023-01-29T16:38:36.553Z,-8.99
2023-01-29T16:40:40.909Z,-9.02
2023-01-29T16:42:43.507Z,-9.03
2023-01-29T16:44:54.644Z,-9.02
2023-01-29T16:47:06.175Z,-9.06
2023-01-29T16:49:27.307Z,-9.06
2023-01-29T16:51:39.764Z,-9.07
2023-01-29T16:53:55.669Z,-9.10
2023-01-29T16:56:06.023Z,-9.10
2023-01-29T16:58:30.598Z,-9.17
2023-01-29T17:00:33.688Z,-9.15
2023-01-29T17:02:39.886Z,-9.18
2023-01-29T17:04:42.630Z,-9.18
2023-01-29T17:06:48.307Z,-9.17
2023-01-29T17:08:51.916Z,-9.13
2023-01-29T17:10:54.721Z,-9.12
2023-01-29T17:13:09.096Z,-9.07
2023-01-29T17:15:43.270Z,-9.09
2023-01-29T17:17:49.232Z,-9.13
2023-01-29T17:19:51.886Z,-9.17
2023-01-29T17:21:54.683Z,-9.17
2023-01-29T17:23:57.419Z,-9.17
2023-01-29T17:26:00.220Z,-9.19
2023-01-29T17:28:03.619Z,-9.23
2023-01-29T17:30:06.973Z,-9.22
2023-01-29T17:32:10.678Z,-9.22
2023-01-29T17:34:15.988Z,-9.27
2023-01-29T17:36:19.195Z,-9.26
2023-01-29T17:38:26.420Z,-9.27
2023-01-29T17:40:50.532Z,-9.32
2023-01-29T17:42:53.170Z,-9.35
2023-01-29T17:44:55.960Z,-9.39
2023-01-29T17:46:58.576Z,-9.36
2023-01-29T17:49:01.235Z,-9.36
2023-01-29T17:51:04.823Z,-9.41
2023-01-29T17:53:07.539Z,-9.39
2023-01-29T17:55:10.260Z,-9.41
2023-01-29T17:57:15.355Z,-9.43
2023-01-29T17:59:23.606Z,-9.46
2023-01-29T18:01:26.444Z,-9.49
2023-01-29T18:03:30.511Z,-9.50
2023-01-29T18:05:33.389Z,-9.47
2023-01-29T18:07:38.080Z,-9.53
2023-01-29T18:09:43.273Z,-9.52
2023-01-29T18:11:47.373Z,-9.51
2023-01-29T18:13:49.965Z,-9.51
2023-01-29T18:15:52.800Z,-9.54
2023-01-29T18:17:55.485Z,-9.54
2023-01-29T18:19:59.701Z,-9.53
2023-01-29T18:22:02.391Z,-9.55
2023-01-29T18:24:05.267Z,-9.54
2023-01-29T18:26:10.792Z,-9.55
2023-01-29T18:28:17.330Z,-9.57
2023-01-29T18:30:20.353Z,-9.59
2023-01-29T18:32:23.087Z,-9.59
2023-01-29T18:34:25.891Z,-9.62
2023-01-29T18:36:28.894Z,-9.69
2023-01-29T18:38:33.510Z,-9.68
2023-01-29T18:40:36.127Z,-9.72
2023-01-29T18:42:39.059Z,-9.72
2023-01-29T18:44:41.627Z,-9.77
2023-01-29T18:46:44.300Z,-9.79
2023-01-29T18:48:47.034Z,-9.85
2023-01-29T18:50:51.155Z,-9.86
2023-01-29T18:52:54.482Z,-9.87
2023-01-29T18:54:57.304Z,-9.93
2023-01-29T18:57:13.184Z,-9.96
2023-01-29T18:59:17.153Z,-9.98
2023-01-29T19:01:19.908Z,-10.01
2023-01-29T19:03:22.708Z,-10.00
2023-01-29T19:05:25.903Z,-10.05
2023-01-29T19:07:28.533Z,-10.02
2023-01-29T19:09:31.237Z,-10.06
2023-01-29T19:11:33.946Z,-10.08
2023-01-29T19:13:38.131Z,-10.10
2023-01-29T19:15:43.657Z,-10.12
2023-01-29T19:17:46.283Z,-10.12
2023-01-29T19:19:49.237Z,-10.11
2023-01-29T19:21:55.659Z,-10.13
2023-01-29T19:23:58.371Z,-10.14
2023-01-29T19:26:01.053Z,-10.14
2023-01-29T19:28:04.076Z,-10.21
2023-01-29T19:30:07.828Z,-10.19
2023-01-29T19:32:10.583Z,-10.21
2023-01-29T19:34:13.424Z,-10.22
2023-01-29T19:36:16.080Z,-10.23
2023-01-29T19:38:21.362Z,-10.27
2023-01-29T19:40:24.541Z,-10.23
2023-01-29T19:42:28.108Z,-10.26
2023-01-29T19:44:32.174Z,-10.27
2023-01-29T19:46:35.977Z,-10.32
2023-01-29T19:48:38.725Z,-10.32
2023-01-29T19:50:42.877Z,-10.31
2023-01-29T19:52:56.566Z,-10.30
2023-01-29T19:55:04.610Z,-10.31
2023-01-29T19:57:09.977Z,-10.28
2023-01-29T19:59:12.603Z,-10.30
2023-01-29T20:01:18.209Z,-10.27
2023-01-29T20:03:20.816Z,-10.28
2023-01-29T20:05:24.300Z,-10.26
2023-01-29T20:07:29.385Z,-10.24
2023-01-29T20:09:32.047Z,-10.21
2023-01-29T20:11:36.015Z,-10.21
2023-01-29T20:13:38.620Z,-10.23
2023-01-29T20:15:45.919Z,-10.25
2023-01-29T20:17:48.588Z,-10.34
2023-01-29T20:19:51.202Z,-10.31
2023-01-29T20:21:54.840Z,-10.31
2023-01-29T20:23:58.052Z,-10.28
2023-01-29T20:26:01.567Z,-10.30
2023-01-29T20:28:07.844Z,-10.31
2023-01-29T20:30:11.604Z,-10.34
2023-01-29T20:32:15.830Z,-10.39
2023-01-29T20:34:18.475Z,-10.41
2023-01-29T20:36:21.427Z,-10.40
2023-01-29T20:38:26.274Z,-10.42
2023-01-29T20:40:29.319Z,-10.42
2023-01-29T20:42:32.027Z,-10.44
2023-01-29T20:44:34.682Z,-10.45
2023-01-29T20:46:38.277Z,-10.47
2023-01-29T20:49:09.638Z,-10.47
2023-01-29T20:51:15.895Z,-10.50
2023-01-29T20:53:18.646Z,-10.51
2023-01-29T20:55:21.386Z,-10.53
2023-01-29T20:58:05.042Z,-10.55
2023-01-29T21:00:09.831Z,-10.56
2023-01-29T21:02:23.740Z,-10.57
2023-01-29T21:04:27.475Z,-10.62
2023-01-29T21:06:33.825Z,-10.62
2023-01-29T21:08:37.716Z,-10.62
2023-01-29T21:10:42.479Z,-10.64
2023-01-29T21:12:45.802Z,-10.65
2023-01-29T21:14:48.478Z,-10.66
2023-01-29T21:16:51.163Z,-10.64
2023-01-29T21:18:57.957Z,-10.69
2023-01-29T21:21:00.630Z,-10.70
2023-01-29T21:23:06.601Z,-10.73
2023-01-29T21:25:10.242Z,-10.73
2023-01-29T21:27:12.831Z,-10.77
2023-01-29T21:29:15.790Z,-10.71
2023-01-29T21:31:18.781Z,-10.61
2023-01-29T21:33:21.479Z,-10.51
2023-01-29T21:35:24.174Z,-10.40
2023-01-29T21:37:26.843Z,-10.32
2023-01-29T21:39:29.509Z,-10.19
2023-01-29T21:41:50.438Z,-10.11
2023-01-29T21:43:53.161Z,-10.03
2023-01-29T21:45:58.112Z,-9.95
2023-01-29T21:48:00.859Z,-9.89
2023-01-29T21:50:03.726Z,-9.81
2023-01-29T21:52:06.942Z,-9.74
2023-01-29T21:54:09.620Z,-9.62
2023-01-29T21:56:12.507Z,-9.52
2023-01-29T21:58:15.206Z,-9.46
2023-01-29T22:00:25.800Z,-9.40
2023-01-29T22:02:31.050Z,-9.34
2023-01-29T22:04:33.851Z,-9.27
2023-01-29T22:06:36.526Z,-9.23
2023-01-29T22:08:39.159Z,-9.21
2023-01-29T22:10:42.328Z,-9.21
2023-01-29T22:12:46.698Z,-9.17
2023-01-29T22:14:49.549Z,-9.14
2023-01-29T22:16:52.365Z,-9.13
2023-01-29T22:18:54.979Z,-9.10
2023-01-29T22:21:02.846Z,-9.09
2023-01-29T22:23:08.738Z,-9.02
2023-01-29T22:25:11.429Z,-8.97
2023-01-29T22:27:15.427Z,-8.89
2023-01-29T22:29:18.395Z,-8.80
2023-01-29T22:31:22.335Z,-8.78
2023-01-29T22:33:25.452Z,-8.74
2023-01-29T22:35:28.528Z,-8.73
2023-01-29T22:37:31.145Z,-8.70
2023-01-29T22:39:33.876Z,-8.68
2023-01-29T22:41:36.781Z,-8.65
2023-01-29T22:43:41.498Z,-8.61
2023-01-29T22:45:44.900Z,-8.64
2023-01-29T22:47:50.121Z,-8.61
2023-01-29T22:49:52.869Z,-8.58
2023-01-29T22:52:10.238Z,-8.55
2023-01-29T22:54:13.056Z,-8.56
2023-01-29T22:56:16.259Z,-8.54
2023-01-29T22:58:18.899Z,-8.54
2023-01-29T23:00:21.698Z,-8.56
2023-01-29T23:02:24.312Z,-8.57
2023-01-29T23:04:28.013Z,-8.49
2023-01-29T23:06:30.645Z,-8.49
2023-01-29T23:08:34.505Z,-8.46
2023-01-29T23:10:37.659Z,-8.48
2023-01-29T23:12:40.330Z,-8.43
2023-01-29T23:14:43.218Z,-8.38
2023-01-29T23:16:45.972Z,-8.35
2023-01-29T23:18:55.789Z,-8.41
2023-01-29T23:20:58.609Z,-8.39
2023-01-29T23:23:01.283Z,-8.38
2023-01-29T23:25:04.448Z,-8.38
2023-01-29T23:27:16.259Z,-8.36
2023-01-29T23:29:19.195Z,-8.37
2023-01-29T23:31:21.969Z,-8.36
2023-01-29T23:33:24.659Z,-8.35
2023-01-29T23:35:27.232Z,-8.41
2023-01-29T23:37:30.353Z,-8.42
2023-01-29T23:39:33.124Z,-8.44
2023-01-29T23:41:35.910Z,-8.42
2023-01-29T23:43:39.823Z,-8.38
2023-01-29T23:45:42.480Z,-8.33
2023-01-29T23:47:45.147Z,-8.29
2023-01-29T23:49:47.774Z,-8.27
2023-01-29T23:51:51.478Z,-8.26
2023-01-29T23:53:54.413Z,-8.31
2023-01-29T23:56:03.370Z,-8.27
2023-01-29T23:58:06.159Z,-8.26
